Terminal Aerodrome Forecast
Issued by NWS Boston, MA

Home | Current Version | Previous Version | Text Only | Print | Product List | Glossary On
Versions: 1 2 3 4 5 6 7 8 9 10 11 12 13 14 15 16 17 18 19 20 21 22 23 24 25 26 27 28 29 30 31 32 33 34 35 36 37 38 39 40 41 42 43 44 45 46 47 48 49 50
000
FTUS41 KBOX 282335
TAFPVD
TAF
KPVD 282335Z 2900/2924 23008KT P6SM SCT030 BKN200
     FM290300 27004KT P6SM BKN250
     FM291000 34004KT P6SM SKC
     FM291400 06005KT P6SM FEW250
     FM291700 13007KT P6SM SCT250
     FM292100 17008KT P6SM SCT250=

USA.gov is the U.S. government's official web portal to all federal, state and local government web resources and services.